createdAt,value
2022-12-24T00:00:31.541Z,24.88
2022-12-24T00:02:59.779Z,28.55
2022-12-24T00:05:27.933Z,25.55
2022-12-24T00:07:55.945Z,22.63
2022-12-24T00:10:25.371Z,22.13
2022-12-24T00:12:53.546Z,26.15
2022-12-24T00:15:21.546Z,22.15
2022-12-24T00:17:49.600Z,22.77
2022-12-24T00:20:17.664Z,21.35
2022-12-24T00:22:45.813Z,20.95
2022-12-24T00:25:13.873Z,21.20
2022-12-24T00:27:43.419Z,21.25
2022-12-24T00:30:11.915Z,21.30
2022-12-24T00:32:40.085Z,22.23
2022-12-24T00:35:08.990Z,21.40
2022-12-24T00:37:37.253Z,17.05
2022-12-24T00:40:06.180Z,21.40
2022-12-24T00:42:34.215Z,20.23
2022-12-24T00:45:03.538Z,20.35
2022-12-24T00:47:31.693Z,20.42
2022-12-24T00:49:59.819Z,20.58
2022-12-24T00:52:27.889Z,19.50
2022-12-24T00:54:56.000Z,19.73
2022-12-24T00:57:24.167Z,18.95
2022-12-24T00:59:52.251Z,19.73
2022-12-24T01:02:21.963Z,19.25
2022-12-24T01:05:08.023Z,19.42
2022-12-24T01:07:36.580Z,17.25
2022-12-24T01:10:06.115Z,17.00
2022-12-24T01:12:34.483Z,18.65
2022-12-24T01:15:02.779Z,17.50
2022-12-24T01:17:33.992Z,17.65
2022-12-24T01:20:02.596Z,20.13
2022-12-24T01:22:30.679Z,16.65
2022-12-24T01:24:58.763Z,17.58
2022-12-24T01:27:26.932Z,16.63
2022-12-24T01:29:55.170Z,17.55
2022-12-24T01:32:23.302Z,17.20
2022-12-24T01:34:52.672Z,18.55
2022-12-24T01:37:20.727Z,17.80
2022-12-24T01:39:48.870Z,18.17
2022-12-24T01:42:36.859Z,16.88
2022-12-24T01:45:44.269Z,17.15
2022-12-24T01:48:18.124Z,16.48
2022-12-24T01:50:48.137Z,14.40
2022-12-24T01:53:16.945Z,17.30
2022-12-24T01:55:46.063Z,17.63
2022-12-24T01:58:15.400Z,16.98
2022-12-24T02:00:43.493Z,17.00
2022-12-24T02:03:12.149Z,18.33
2022-12-24T02:05:47.705Z,16.40
2022-12-24T02:08:17.827Z,18.13
2022-12-24T02:10:46.074Z,17.48
2022-12-24T02:13:14.680Z,16.08
2022-12-24T02:15:52.359Z,16.95
2022-12-24T02:18:24.299Z,17.08
2022-12-24T02:21:21.433Z,17.05
2022-12-24T02:24:06.424Z,17.23
2022-12-24T02:26:49.695Z,17.98
2022-12-24T02:29:34.218Z,17.45
2022-12-24T02:32:06.058Z,17.27
2022-12-24T02:34:37.608Z,19.30
2022-12-24T02:37:08.129Z,18.15
2022-12-24T02:39:40.455Z,17.67
2022-12-24T02:44:40.828Z,18.17
2022-12-24T02:49:38.878Z,17.00
2022-12-24T02:52:07.118Z,18.98
2022-12-24T02:54:35.179Z,20.30
2022-12-24T02:57:09.952Z,20.23
2022-12-24T03:00:00.425Z,18.98
2022-12-24T03:02:42.000Z,19.40
2022-12-24T03:05:15.106Z,20.30
2022-12-24T03:07:48.778Z,20.27
2022-12-24T03:10:24.399Z,20.77
2022-12-24T03:12:55.589Z,18.55
2022-12-24T03:15:26.192Z,19.65
2022-12-24T03:17:59.507Z,19.58
2022-12-24T03:20:31.911Z,19.38
2022-12-24T03:22:59.909Z,19.75
2022-12-24T03:25:28.548Z,22.27
2022-12-24T03:27:57.551Z,21.83
2022-12-24T03:30:25.660Z,21.48
2022-12-24T03:32:55.063Z,23.75
2022-12-24T03:35:23.112Z,22.83
2022-12-24T03:37:51.533Z,22.27
2022-12-24T03:40:19.755Z,21.85
2022-12-24T03:42:48.010Z,23.73
2022-12-24T03:45:16.053Z,23.42
2022-12-24T03:47:44.060Z,24.05
2022-12-24T03:50:13.461Z,25.20
2022-12-24T03:52:41.667Z,25.45
2022-12-24T03:55:10.221Z,23.27
2022-12-24T03:57:38.215Z,25.65
2022-12-24T04:00:07.587Z,25.17
2022-12-24T04:02:35.743Z,26.30
2022-12-24T04:05:03.813Z,25.10
2022-12-24T04:07:34.377Z,27.02
2022-12-24T04:10:02.351Z,26.15
2022-12-24T04:12:30.465Z,26.48
2022-12-24T04:14:58.557Z,27.42
2022-12-24T04:17:26.534Z,27.23
2022-12-24T04:19:54.764Z,27.92
2022-12-24T04:22:22.834Z,25.58
2022-12-24T04:24:53.414Z,27.95
2022-12-24T04:27:25.323Z,26.15
2022-12-24T04:29:58.146Z,27.02
2022-12-24T04:32:27.357Z,26.90
2022-12-24T04:34:55.456Z,27.20
2022-12-24T04:37:23.535Z,27.77
2022-12-24T04:39:53.011Z,27.70
2022-12-24T04:42:21.129Z,26.45
2022-12-24T04:44:49.263Z,27.02
2022-12-24T04:47:17.442Z,27.83
2022-12-24T04:49:45.550Z,27.08
2022-12-24T04:52:13.774Z,27.85
2022-12-24T04:54:42.045Z,27.15
2022-12-24T04:57:11.681Z,29.27
2022-12-24T04:59:39.827Z,28.17
2022-12-24T05:02:07.955Z,28.08
2022-12-24T05:04:38.584Z,27.95
2022-12-24T05:07:06.728Z,27.67
2022-12-24T05:09:34.941Z,29.23
2022-12-24T05:12:02.969Z,27.92
2022-12-24T05:14:32.332Z,27.73
2022-12-24T05:17:00.692Z,29.27
2022-12-24T05:19:28.930Z,28.33
2022-12-24T05:22:11.028Z,27.95
2022-12-24T05:24:56.639Z,29.83
2022-12-24T05:27:24.877Z,31.35
2022-12-24T05:29:54.315Z,29.83
2022-12-24T05:32:22.370Z,29.42
2022-12-24T05:34:50.550Z,29.83
2022-12-24T05:37:18.856Z,31.38
2022-12-24T05:39:46.882Z,29.83
2022-12-24T05:42:15.014Z,30.83
2022-12-24T05:44:43.201Z,30.85
2022-12-24T05:47:12.542Z,31.88
2022-12-24T05:49:40.632Z,30.90
2022-12-24T05:52:08.670Z,32.83
2022-12-24T05:54:36.726Z,32.30
2022-12-24T05:57:04.860Z,30.95
2022-12-24T05:59:32.965Z,31.58
2022-12-24T06:02:01.212Z,33.25
2022-12-24T06:04:31.085Z,33.95
2022-12-24T06:06:59.400Z,34.40
2022-12-24T06:09:27.437Z,36.17
2022-12-24T06:11:55.607Z,32.15
2022-12-24T06:14:23.782Z,33.28
2022-12-24T06:16:52.394Z,35.13
2022-12-24T06:19:20.549Z,35.30
2022-12-24T06:21:49.987Z,34.30
2022-12-24T06:24:17.994Z,34.58
2022-12-24T06:26:46.012Z,34.90
2022-12-24T06:29:14.039Z,33.35
2022-12-24T06:31:44.649Z,34.05
2022-12-24T06:34:14.407Z,33.25
2022-12-24T06:36:42.493Z,34.33
2022-12-24T06:39:12.966Z,34.70
2022-12-24T06:41:42.420Z,37.00
2022-12-24T06:44:10.657Z,34.13
2022-12-24T06:46:38.849Z,36.10
2022-12-24T06:49:06.981Z,35.35
2022-12-24T06:51:35.005Z,36.35
2022-12-24T06:54:03.101Z,36.90
2022-12-24T06:56:32.482Z,32.08
2022-12-24T06:59:05.349Z,35.67
2022-12-24T07:01:33.942Z,35.20
2022-12-24T07:04:02.270Z,34.72
2022-12-24T07:06:31.191Z,35.10
2022-12-24T07:08:59.250Z,33.70
2022-12-24T07:11:28.051Z,33.50
2022-12-24T07:13:57.386Z,33.72
2022-12-24T07:16:25.487Z,33.22
2022-12-24T07:18:53.614Z,34.67
2022-12-24T07:21:21.592Z,32.22
2022-12-24T07:23:49.637Z,35.92
2022-12-24T07:26:17.955Z,32.63
2022-12-24T07:28:46.634Z,34.08
2022-12-24T07:31:16.218Z,33.88
2022-12-24T07:33:47.285Z,36.00
2022-12-24T07:36:20.731Z,33.80
2022-12-24T07:38:49.055Z,33.65
2022-12-24T07:41:17.255Z,34.42
2022-12-24T07:43:45.572Z,35.65
2022-12-24T07:46:13.911Z,35.63
2022-12-24T07:48:43.322Z,35.92
2022-12-24T07:51:11.418Z,35.05
2022-12-24T07:53:39.592Z,35.75
2022-12-24T07:56:12.749Z,36.03
2022-12-24T07:58:41.398Z,39.25
2022-12-24T08:01:10.737Z,36.65
2022-12-24T08:03:40.701Z,37.40
2022-12-24T08:06:11.069Z,36.47
2022-12-24T08:08:39.441Z,37.13
2022-12-24T08:11:08.687Z,37.72
2022-12-24T08:13:36.869Z,35.67
2022-12-24T08:16:05.259Z,33.97
2022-12-24T08:18:33.371Z,34.63
2022-12-24T08:21:01.440Z,35.53
2022-12-24T08:23:30.880Z,36.67
2022-12-24T08:25:59.219Z,34.97
2022-12-24T08:28:27.417Z,33.15
2022-12-24T08:30:55.453Z,34.55
2022-12-24T08:33:23.480Z,35.08
2022-12-24T08:35:53.194Z,32.22
2022-12-24T08:38:22.359Z,29.15
2022-12-24T08:40:54.369Z,28.90
2022-12-24T08:43:22.461Z,26.33
2022-12-24T08:45:51.591Z,25.60
2022-12-24T08:48:19.691Z,24.70
2022-12-24T08:50:48.385Z,24.52
2022-12-24T08:53:16.519Z,22.73
2022-12-24T08:55:46.674Z,22.60
2022-12-24T08:58:18.561Z,23.40
2022-12-24T09:00:47.005Z,20.75
2022-12-24T09:03:20.658Z,20.88
2022-12-24T09:05:54.156Z,21.45
2022-12-24T09:08:22.442Z,22.80
2022-12-24T09:10:50.977Z,22.50
2022-12-24T09:13:21.573Z,21.27
2022-12-24T09:15:55.392Z,20.90
2022-12-24T09:18:26.420Z,21.70
2022-12-24T09:21:00.015Z,21.10
2022-12-24T09:23:28.668Z,21.15
2022-12-24T09:25:56.712Z,19.98
2022-12-24T09:28:26.133Z,20.48
2022-12-24T09:30:58.671Z,21.05
2022-12-24T09:33:26.897Z,21.02
2022-12-24T09:35:55.446Z,20.27
2022-12-24T09:38:23.935Z,21.95
2022-12-24T09:40:53.016Z,22.20
2022-12-24T09:43:22.944Z,20.77
2022-12-24T09:46:01.883Z,22.77
2022-12-24T09:48:31.663Z,19.80
2022-12-24T09:51:02.613Z,20.95
2022-12-24T09:53:36.921Z,20.30
2022-12-24T09:56:07.990Z,19.73
2022-12-24T09:58:39.730Z,19.58
2022-12-24T10:01:15.521Z,19.30
2022-12-24T10:03:44.106Z,19.95
2022-12-24T10:06:15.718Z,17.17
2022-12-24T10:08:57.042Z,16.92
2022-12-24T10:11:33.530Z,16.35
2022-12-24T10:14:10.462Z,15.82
2022-12-24T10:16:47.076Z,13.48
2022-12-24T10:19:18.397Z,13.88
2022-12-24T10:21:55.146Z,13.50
2022-12-24T10:24:26.309Z,12.70
2022-12-24T10:26:56.946Z,12.52
2022-12-24T10:29:28.425Z,10.98
2022-12-24T10:32:05.758Z,10.90
2022-12-24T10:34:37.423Z,13.52
2022-12-24T10:37:05.907Z,11.15
2022-12-24T10:39:34.279Z,10.45
2022-12-24T10:42:02.524Z,9.93
2022-12-24T10:44:33.070Z,9.13
2022-12-24T10:47:03.157Z,8.95
2022-12-24T10:49:34.353Z,9.55
2022-12-24T10:52:05.595Z,9.82
2022-12-24T10:54:39.613Z,7.25
2022-12-24T10:57:25.839Z,9.52
2022-12-24T10:59:57.862Z,9.48
2022-12-24T11:02:30.407Z,9.02
2022-12-24T11:05:00.389Z,10.05
2022-12-24T11:07:30.383Z,9.95
2022-12-24T11:10:00.726Z,11.50
2022-12-24T11:12:30.997Z,10.55
2022-12-24T11:15:04.771Z,10.10
2022-12-24T11:17:35.561Z,11.85
2022-12-24T11:20:04.428Z,12.00
2022-12-24T11:22:33.753Z,11.60
2022-12-24T11:25:05.040Z,11.05
2022-12-24T11:27:42.181Z,11.60
2022-12-24T11:30:31.017Z,10.82
2022-12-24T11:33:22.871Z,10.45
2022-12-24T11:35:57.638Z,9.80
2022-12-24T11:38:27.564Z,10.25
2022-12-24T11:41:01.284Z,9.68
2022-12-24T11:43:47.185Z,10.48
2022-12-24T11:46:23.792Z,12.75
2022-12-24T11:49:08.268Z,10.75
2022-12-24T11:51:36.706Z,11.65
2022-12-24T11:54:09.318Z,10.30
2022-12-24T11:56:40.506Z,11.02
2022-12-24T11:59:16.326Z,8.63
2022-12-24T12:01:52.541Z,9.98
2022-12-24T12:04:23.616Z,11.30
2022-12-24T12:06:55.426Z,11.43
2022-12-24T12:09:27.780Z,11.40
2022-12-24T12:14:28.701Z,9.45
2022-12-24T12:19:40.289Z,9.60
2022-12-24T12:22:23.107Z,9.18
2022-12-24T12:24:52.829Z,10.02
2022-12-24T12:27:24.789Z,10.13
2022-12-24T12:29:57.629Z,9.77
2022-12-24T12:32:29.178Z,9.25
2022-12-24T12:35:04.983Z,9.80
2022-12-24T12:37:37.443Z,9.50
2022-12-24T12:40:14.454Z,8.48
2022-12-24T12:42:46.593Z,8.73
2022-12-24T12:45:34.727Z,9.43
2022-12-24T12:48:12.645Z,8.40
2022-12-24T12:50:46.572Z,8.70
2022-12-24T12:53:25.922Z,10.00
2022-12-24T12:55:59.262Z,8.73
2022-12-24T12:58:30.415Z,9.45
2022-12-24T13:01:03.262Z,10.10
2022-12-24T13:03:52.383Z,8.35
2022-12-24T13:06:45.523Z,8.68
2022-12-24T13:09:29.919Z,7.68
2022-12-24T13:12:13.151Z,7.70
2022-12-24T13:14:54.083Z,9.32
2022-12-24T13:17:43.849Z,8.80
2022-12-24T13:20:20.019Z,8.95
2022-12-24T13:22:57.162Z,8.52
2022-12-24T13:25:28.850Z,9.60
2022-12-24T13:27:56.843Z,8.90
2022-12-24T13:30:37.587Z,9.35
2022-12-24T13:33:05.977Z,7.40
2022-12-24T13:35:39.796Z,7.78
2022-12-24T13:38:43.705Z,8.65
2022-12-24T13:41:44.272Z,8.55
2022-12-24T13:44:24.434Z,9.13
2022-12-24T13:46:58.129Z,10.27
2022-12-24T13:49:32.505Z,8.05
2022-12-24T13:52:19.262Z,8.13
2022-12-24T13:55:00.676Z,8.70
2022-12-24T13:57:40.140Z,8.90
2022-12-24T14:00:26.176Z,8.35
2022-12-24T14:02:56.426Z,11.00
2022-12-24T14:05:30.983Z,8.82
2022-12-24T14:07:59.969Z,9.32
2022-12-24T14:10:32.246Z,9.60
2022-12-24T14:16:02.996Z,9.50
2022-12-24T14:21:02.867Z,9.18
2022-12-24T14:23:46.818Z,9.68
2022-12-24T14:26:18.853Z,9.10
2022-12-24T14:28:49.976Z,9.90
2022-12-24T14:31:19.566Z,10.82
2022-12-24T14:33:47.976Z,9.63
2022-12-24T14:36:20.299Z,9.63
2022-12-24T14:41:26.746Z,9.13
2022-12-24T14:44:01.736Z,9.45
2022-12-24T14:46:36.061Z,8.80
2022-12-24T14:49:08.450Z,11.50
2022-12-24T14:54:28.049Z,9.43
2022-12-24T14:57:14.639Z,9.68
2022-12-24T14:59:45.072Z,9.38
2022-12-24T15:02:41.207Z,11.10
2022-12-24T15:05:14.727Z,11.80
2022-12-24T15:07:47.781Z,10.85
2022-12-24T15:10:29.202Z,10.90
2022-12-24T15:13:00.226Z,10.13
2022-12-24T15:15:28.258Z,10.60
2022-12-24T15:17:56.977Z,11.93
2022-12-24T15:20:26.998Z,10.65
2022-12-24T15:22:56.421Z,16.52
2022-12-24T15:25:26.440Z,16.52
2022-12-24T15:27:54.552Z,14.45
2022-12-24T15:30:27.108Z,14.13
2022-12-24T15:32:56.552Z,13.35
2022-12-24T15:35:50.778Z,11.77
2022-12-24T15:38:28.563Z,14.65
2022-12-24T15:40:57.144Z,12.55
2022-12-24T15:43:26.061Z,13.70
2022-12-24T15:45:55.541Z,14.50
2022-12-24T15:48:25.731Z,13.82
2022-12-24T15:50:56.145Z,12.20
2022-12-24T15:53:27.435Z,13.80
2022-12-24T15:56:04.801Z,12.95
2022-12-24T15:58:34.533Z,19.48
2022-12-24T16:01:28.185Z,16.05
2022-12-24T16:03:58.987Z,23.55
2022-12-24T16:06:28.784Z,18.60
2022-12-24T16:08:59.812Z,17.55
2022-12-24T16:11:35.038Z,15.15
2022-12-24T16:14:12.310Z,19.45
2022-12-24T16:16:45.218Z,15.07
2022-12-24T16:19:18.275Z,15.30
2022-12-24T16:21:46.380Z,14.32
2022-12-24T16:24:17.029Z,15.02
2022-12-24T16:26:45.188Z,15.25
2022-12-24T16:29:13.734Z,16.08
2022-12-24T16:31:47.419Z,16.48
2022-12-24T16:34:16.225Z,20.10
2022-12-24T16:36:45.936Z,15.23
2022-12-24T16:39:29.254Z,16.10
2022-12-24T16:42:16.434Z,16.13
2022-12-24T16:44:44.863Z,14.85
2022-12-24T16:47:22.150Z,15.25
2022-12-24T16:49:50.707Z,14.80
2022-12-24T16:52:22.387Z,15.23
2022-12-24T16:54:50.725Z,14.68
2022-12-24T16:57:19.322Z,14.02
2022-12-24T16:59:47.804Z,20.23
2022-12-24T17:02:19.038Z,15.48
2022-12-24T17:04:47.539Z,14.03
2022-12-24T17:07:18.599Z,14.30
2022-12-24T17:09:46.656Z,19.38
2022-12-24T17:12:15.501Z,16.92
2022-12-24T17:14:43.570Z,14.25
2022-12-24T17:17:22.188Z,13.63
2022-12-24T17:19:50.348Z,14.25
2022-12-24T17:22:18.415Z,13.43
2022-12-24T17:24:46.735Z,13.52
2022-12-24T17:27:15.039Z,15.65
2022-12-24T17:29:43.356Z,12.65
2022-12-24T17:32:11.467Z,12.35
2022-12-24T17:34:41.095Z,12.45
2022-12-24T17:37:10.207Z,17.55
2022-12-24T17:39:38.270Z,16.67
2022-12-24T17:42:06.467Z,15.48
2022-12-24T17:44:34.654Z,18.17
2022-12-24T17:47:05.098Z,47.05
2022-12-24T17:49:33.847Z,29.85
2022-12-24T17:52:04.677Z,17.98
2022-12-24T17:54:32.746Z,19.20
2022-12-24T17:57:00.760Z,15.18
2022-12-24T17:59:29.991Z,12.43
2022-12-24T18:01:58.180Z,12.75
2022-12-24T18:04:26.524Z,11.40
2022-12-24T18:07:01.725Z,12.70
2022-12-24T18:09:32.007Z,12.05
2022-12-24T18:12:00.960Z,13.38
2022-12-24T18:14:29.265Z,12.27
2022-12-24T18:16:57.320Z,12.98
2022-12-24T18:19:25.496Z,10.82
2022-12-24T18:21:53.470Z,11.68
2022-12-24T18:24:21.766Z,12.23
2022-12-24T18:26:51.207Z,10.90
2022-12-24T18:29:19.208Z,12.27
2022-12-24T18:31:47.561Z,11.02
2022-12-24T18:34:16.115Z,10.80
2022-12-24T18:36:46.237Z,10.32
2022-12-24T18:39:17.893Z,36.28
2022-12-24T18:41:46.135Z,10.70
2022-12-24T18:44:19.494Z,10.20
2022-12-24T18:46:53.838Z,10.25
2022-12-24T18:49:22.104Z,9.68
2022-12-24T18:51:50.169Z,9.15
2022-12-24T18:54:18.320Z,8.38
2022-12-24T18:56:46.379Z,8.80
2022-12-24T18:59:15.767Z,8.23
2022-12-24T19:01:44.073Z,8.02
2022-12-24T19:04:14.954Z,9.85
2022-12-24T19:06:49.074Z,8.02
2022-12-24T19:09:20.933Z,8.77
2022-12-24T19:11:49.087Z,7.93
2022-12-24T19:14:20.159Z,6.70
2022-12-24T19:16:48.285Z,7.85
2022-12-24T19:19:16.673Z,50.67
2022-12-24T19:21:44.760Z,10.43
2022-12-24T19:24:14.328Z,7.07
2022-12-24T19:26:42.432Z,6.72
2022-12-24T19:29:10.535Z,6.65
2022-12-24T19:31:40.670Z,7.47
2022-12-24T19:34:08.710Z,6.50
2022-12-24T19:36:36.927Z,7.72
2022-12-24T19:39:05.517Z,6.10
2022-12-24T19:41:33.629Z,6.28
2022-12-24T19:44:02.964Z,5.90
2022-12-24T19:46:32.992Z,6.20
2022-12-24T19:49:04.980Z,5.88
2022-12-24T19:51:34.160Z,5.95
2022-12-24T19:54:02.158Z,5.93
2022-12-24T19:56:32.162Z,5.75
2022-12-24T19:59:01.443Z,5.22
2022-12-24T20:01:32.341Z,5.80
2022-12-24T20:04:02.500Z,5.53
2022-12-24T20:06:32.507Z,5.45
2022-12-24T20:09:01.110Z,6.07
2022-12-24T20:11:29.239Z,6.03
2022-12-24T20:13:58.352Z,6.45
2022-12-24T20:16:27.458Z,7.22
2022-12-24T20:18:57.047Z,6.82
2022-12-24T20:21:27.299Z,6.80
2022-12-24T20:23:55.381Z,5.13
2022-12-24T20:26:24.870Z,5.22
2022-12-24T20:28:53.321Z,6.05
2022-12-24T20:31:24.396Z,7.10
2022-12-24T20:33:52.869Z,7.38
2022-12-24T20:36:23.306Z,7.07
2022-12-24T20:38:52.730Z,6.80
2022-12-24T20:41:23.659Z,8.00
2022-12-24T20:43:52.391Z,6.55
2022-12-24T20:46:22.496Z,6.20
2022-12-24T20:48:51.041Z,8.82
2022-12-24T20:51:39.079Z,6.82
2022-12-24T20:54:08.698Z,5.88
2022-12-24T20:56:36.940Z,7.03
2022-12-24T20:59:05.216Z,7.07
2022-12-24T21:01:34.394Z,6.80
2022-12-24T21:04:04.909Z,8.40
2022-12-24T21:06:33.748Z,7.75
2022-12-24T21:09:02.725Z,9.35
2022-12-24T21:11:49.983Z,8.38
2022-12-24T21:14:20.686Z,8.15
2022-12-24T21:16:49.537Z,8.27
2022-12-24T21:19:19.724Z,8.02
2022-12-24T21:21:47.986Z,8.13
2022-12-24T21:24:16.661Z,9.32
2022-12-24T21:26:46.073Z,10.43
2022-12-24T21:29:14.711Z,10.95
2022-12-24T21:31:43.940Z,9.18
2022-12-24T21:34:11.927Z,9.30
2022-12-24T21:36:40.101Z,9.73
2022-12-24T21:39:08.114Z,10.20
2022-12-24T21:41:37.509Z,9.70
2022-12-24T21:44:07.016Z,11.40
2022-12-24T21:46:35.078Z,9.63
2022-12-24T21:49:20.575Z,10.20
2022-12-24T21:51:49.268Z,9.93
2022-12-24T21:54:28.325Z,9.65
2022-12-24T21:57:16.107Z,9.05
2022-12-24T21:59:45.951Z,9.98
2022-12-24T22:02:15.321Z,9.88
2022-12-24T22:04:43.683Z,9.73
2022-12-24T22:07:38.052Z,9.63
2022-12-24T22:10:24.651Z,10.48
2022-12-24T22:12:53.530Z,11.70
2022-12-24T22:15:23.497Z,10.15
2022-12-24T22:17:51.544Z,12.68
2022-12-24T22:20:19.703Z,10.55
2022-12-24T22:22:48.229Z,12.07
2022-12-24T22:25:16.512Z,11.57
2022-12-24T22:27:44.617Z,10.68
2022-12-24T22:30:13.260Z,10.43
2022-12-24T22:32:42.658Z,10.68
2022-12-24T22:35:11.433Z,9.50
2022-12-24T22:37:39.739Z,10.85
2022-12-24T22:40:09.219Z,10.05
2022-12-24T22:42:37.675Z,10.02
2022-12-24T22:45:06.984Z,9.57
2022-12-24T22:47:35.103Z,11.02
2022-12-24T22:50:05.342Z,9.50
2022-12-24T22:52:33.850Z,11.70
2022-12-24T22:55:02.019Z,10.77
2022-12-24T22:57:30.199Z,11.90
2022-12-24T22:59:58.192Z,11.57
2022-12-24T23:02:28.675Z,11.40
2022-12-24T23:04:57.446Z,12.35
2022-12-24T23:07:27.049Z,11.18
2022-12-24T23:09:55.106Z,11.63
2022-12-24T23:12:37.112Z,12.00
2022-12-24T23:15:05.945Z,11.27
2022-12-24T23:17:33.966Z,13.85
2022-12-24T23:20:02.956Z,12.15
2022-12-24T23:22:32.327Z,13.55
2022-12-24T23:25:00.429Z,11.65
2022-12-24T23:27:28.517Z,11.90
2022-12-24T23:29:56.560Z,11.95
2022-12-24T23:32:24.569Z,13.57
2022-12-24T23:34:52.615Z,13.57
2022-12-24T23:37:20.594Z,12.50
2022-12-24T23:39:50.000Z,12.98
2022-12-24T23:42:18.034Z,13.07
2022-12-24T23:44:45.966Z,13.73
2022-12-24T23:47:14.171Z,13.60
2022-12-24T23:49:42.250Z,15.68
2022-12-24T23:52:10.488Z,12.85
2022-12-24T23:54:38.614Z,11.65
2022-12-24T23:57:08.044Z,12.30
2022-12-24T23:59:36.159Z,13.95
